createdAt,value
2022-11-09T00:01:08.446Z,2.50
2022-11-09T00:03:37.061Z,2.75
2022-11-09T00:06:05.674Z,3.20
2022-11-09T00:08:33.748Z,4.28
2022-11-09T00:11:05.342Z,6.60
2022-11-09T00:13:38.037Z,29.23
2022-11-09T00:16:06.736Z,40.13
2022-11-09T00:18:36.075Z,30.48
2022-11-09T00:21:07.913Z,21.45
2022-11-09T00:23:36.302Z,32.13
2022-11-09T00:26:05.764Z,20.00
2022-11-09T00:28:35.840Z,19.90
2022-11-09T00:31:06.054Z,7.03
2022-11-09T00:33:37.495Z,3.88
2022-11-09T00:36:08.447Z,4.20
2022-11-09T00:38:36.703Z,2.30
2022-11-09T00:41:05.459Z,4.47
2022-11-09T00:43:35.427Z,2.47
2022-11-09T00:46:03.761Z,2.72
2022-11-09T00:48:34.715Z,2.15
2022-11-09T00:51:02.966Z,2.22
2022-11-09T00:53:32.198Z,4.82
2022-11-09T00:56:03.313Z,3.20
2022-11-09T00:58:35.181Z,4.25
2022-11-09T01:01:08.787Z,3.03
2022-11-09T01:03:36.880Z,3.35
2022-11-09T01:06:08.180Z,4.10
2022-11-09T01:08:37.602Z,4.43
2022-11-09T01:11:07.607Z,3.47
2022-11-09T01:13:38.079Z,4.53
2022-11-09T01:16:08.590Z,3.63
2022-11-09T01:18:37.229Z,2.92
2022-11-09T01:21:07.182Z,2.85
2022-11-09T01:23:36.175Z,3.03
2022-11-09T01:26:09.198Z,2.35
2022-11-09T01:28:39.050Z,2.08
2022-11-09T01:31:13.767Z,3.17
2022-11-09T01:33:42.153Z,2.03
2022-11-09T01:36:15.975Z,4.47
2022-11-09T01:38:44.728Z,5.00
2022-11-09T01:41:18.278Z,3.13
2022-11-09T01:44:18.326Z,2.95
2022-11-09T01:46:52.309Z,2.80
2022-11-09T01:49:41.023Z,5.03
2022-11-09T01:52:17.887Z,3.40
2022-11-09T01:54:50.157Z,3.40
2022-11-09T01:57:23.563Z,2.42
2022-11-09T01:59:57.779Z,3.38
2022-11-09T02:02:26.280Z,3.00
2022-11-09T02:04:59.280Z,2.78
2022-11-09T02:07:27.739Z,2.85
2022-11-09T02:10:05.196Z,2.50
2022-11-09T02:12:35.990Z,4.88
2022-11-09T02:15:11.632Z,3.72
2022-11-09T02:17:40.847Z,2.30
2022-11-09T02:20:12.619Z,5.82
2022-11-09T02:22:41.997Z,3.28
2022-11-09T02:25:11.339Z,6.18
2022-11-09T02:27:40.348Z,2.85
2022-11-09T02:30:09.770Z,3.80
2022-11-09T02:32:37.828Z,3.97
2022-11-09T02:35:06.612Z,2.70
2022-11-09T02:37:39.429Z,2.05
2022-11-09T02:40:12.677Z,2.85
2022-11-09T02:42:41.056Z,3.33
2022-11-09T02:45:10.488Z,3.75
2022-11-09T02:47:38.602Z,2.28
2022-11-09T02:50:07.778Z,5.20
2022-11-09T02:52:37.236Z,8.88
2022-11-09T02:55:08.104Z,4.72
2022-11-09T02:57:36.168Z,8.70
2022-11-09T03:00:07.835Z,4.20
2022-11-09T03:02:39.399Z,3.58
2022-11-09T03:05:08.424Z,4.80
2022-11-09T03:07:37.962Z,4.43
2022-11-09T03:10:06.827Z,5.25
2022-11-09T03:12:34.938Z,5.55
2022-11-09T03:15:06.635Z,5.78
2022-11-09T03:17:35.528Z,4.28
2022-11-09T03:20:06.246Z,3.75
2022-11-09T03:22:34.387Z,5.97
2022-11-09T03:25:03.792Z,4.85
2022-11-09T03:27:31.865Z,4.50
2022-11-09T03:29:59.899Z,3.60
2022-11-09T03:32:28.031Z,4.90
2022-11-09T03:34:56.942Z,3.50
2022-11-09T03:37:25.068Z,5.75
2022-11-09T03:39:54.257Z,4.35
2022-11-09T03:42:23.731Z,5.85
2022-11-09T03:44:51.868Z,5.38
2022-11-09T03:47:21.839Z,9.23
2022-11-09T03:49:49.933Z,3.58
2022-11-09T03:52:18.060Z,5.00
2022-11-09T03:54:48.181Z,4.25
2022-11-09T03:57:16.330Z,6.07
2022-11-09T03:59:45.909Z,7.97
2022-11-09T04:02:14.000Z,5.20
2022-11-09T04:04:42.039Z,4.38
2022-11-09T04:07:13.043Z,5.65
2022-11-09T04:09:43.321Z,5.20
2022-11-09T04:12:11.430Z,4.63
2022-11-09T04:14:39.531Z,5.35
2022-11-09T04:17:09.271Z,5.13
2022-11-09T04:19:37.358Z,5.70
2022-11-09T04:22:08.216Z,7.43
2022-11-09T04:24:37.743Z,4.43
2022-11-09T04:27:05.911Z,8.95
2022-11-09T04:29:34.120Z,5.80
2022-11-09T04:32:02.273Z,6.30
2022-11-09T04:34:34.329Z,6.60
2022-11-09T04:37:02.600Z,6.65
2022-11-09T04:39:30.701Z,6.43
2022-11-09T04:41:58.730Z,6.40
2022-11-09T04:44:30.469Z,7.10
2022-11-09T04:47:00.860Z,5.18
2022-11-09T04:49:29.051Z,7.53
2022-11-09T04:51:58.630Z,7.75
2022-11-09T04:54:29.773Z,10.80
2022-11-09T04:56:57.863Z,5.80
2022-11-09T04:59:26.139Z,4.95
2022-11-09T05:01:54.365Z,5.30
2022-11-09T05:04:24.459Z,6.35
2022-11-09T05:06:56.513Z,6.35
2022-11-09T05:09:26.202Z,8.25
2022-11-09T05:11:56.523Z,5.63
2022-11-09T05:14:24.691Z,8.18
2022-11-09T05:16:55.832Z,8.68
2022-11-09T05:19:26.910Z,8.23
2022-11-09T05:21:55.070Z,5.80
2022-11-09T05:24:22.097Z,5.63
2022-11-09T05:27:07.995Z,6.38
2022-11-09T05:29:36.253Z,7.68
2022-11-09T05:35:05.724Z,6.93
2022-11-09T05:37:33.905Z,6.35
2022-11-09T05:40:03.303Z,5.45
2022-11-09T05:42:36.775Z,4.47
2022-11-09T05:45:40.354Z,6.10
2022-11-09T05:47:58.365Z,4.82
2022-11-09T05:50:26.470Z,4.70
2022-11-09T05:52:55.612Z,3.00
2022-11-09T05:55:25.964Z,4.72
2022-11-09T05:57:55.672Z,5.00
2022-11-09T06:00:26.918Z,4.50
2022-11-09T06:02:55.273Z,4.53
2022-11-09T06:05:23.351Z,2.20
2022-11-09T06:07:51.390Z,5.07
2022-11-09T06:10:19.955Z,3.83
2022-11-09T06:12:54.380Z,3.92
2022-11-09T06:15:27.431Z,5.20
2022-11-09T06:17:56.271Z,4.15
2022-11-09T06:20:25.026Z,3.88
2022-11-09T06:23:02.481Z,4.47
2022-11-09T06:25:33.269Z,4.65
2022-11-09T06:28:02.234Z,4.20
2022-11-09T06:30:31.934Z,3.35
2022-11-09T06:33:01.081Z,7.63
2022-11-09T06:35:29.557Z,3.80
2022-11-09T06:37:58.742Z,4.32
2022-11-09T06:40:27.238Z,4.82
2022-11-09T06:43:01.859Z,3.83
2022-11-09T06:45:34.510Z,2.63
2022-11-09T06:48:05.180Z,4.32
2022-11-09T06:50:35.185Z,2.13
2022-11-09T06:53:05.732Z,3.50
2022-11-09T06:55:39.814Z,5.25
2022-11-09T06:58:12.002Z,4.28
2022-11-09T07:00:43.624Z,1.67
2022-11-09T07:03:19.419Z,2.85
2022-11-09T07:05:48.789Z,3.53
2022-11-09T07:08:17.822Z,4.38
2022-11-09T07:10:46.670Z,3.40
2022-11-09T07:13:15.315Z,4.43
2022-11-09T07:15:44.881Z,2.95
2022-11-09T07:18:15.426Z,3.05
2022-11-09T07:20:43.508Z,2.70
2022-11-09T07:23:11.601Z,3.95
2022-11-09T07:25:41.771Z,3.30
2022-11-09T07:28:12.046Z,3.38
2022-11-09T07:30:41.130Z,2.78
2022-11-09T07:33:16.069Z,4.93
2022-11-09T07:35:44.105Z,3.58
2022-11-09T07:38:12.542Z,4.70
2022-11-09T07:40:40.817Z,2.55
2022-11-09T07:43:09.405Z,2.63
2022-11-09T07:45:37.693Z,3.55
2022-11-09T07:48:07.785Z,3.00
2022-11-09T07:50:38.682Z,3.97
2022-11-09T07:53:08.220Z,3.75
2022-11-09T07:55:36.591Z,4.85
2022-11-09T07:58:06.768Z,4.85
2022-11-09T08:00:37.926Z,8.75
2022-11-09T08:03:06.323Z,6.40
2022-11-09T08:05:36.485Z,7.45
2022-11-09T08:08:06.159Z,8.70
2022-11-09T08:10:35.807Z,6.90
2022-11-09T08:13:06.382Z,5.82
2022-11-09T08:15:35.892Z,4.78
2022-11-09T08:18:05.635Z,4.95
2022-11-09T08:20:34.919Z,3.50
2022-11-09T08:23:08.538Z,4.13
2022-11-09T08:25:44.484Z,4.90
2022-11-09T08:28:20.368Z,3.38
2022-11-09T08:30:56.719Z,3.65
2022-11-09T08:33:25.001Z,5.43
2022-11-09T08:35:53.570Z,4.10
2022-11-09T08:38:23.658Z,5.47
2022-11-09T08:40:51.905Z,2.92
2022-11-09T08:43:20.008Z,4.90
2022-11-09T08:45:49.188Z,4.22
2022-11-09T08:48:17.413Z,2.38
2022-11-09T08:50:45.745Z,2.03
2022-11-09T08:53:13.930Z,4.30
2022-11-09T08:55:48.423Z,1.50
2022-11-09T08:58:18.344Z,1.38
2022-11-09T09:00:46.936Z,2.40
2022-11-09T09:03:15.039Z,3.22
2022-11-09T09:05:43.133Z,1.70
2022-11-09T09:08:12.936Z,1.30
2022-11-09T09:10:41.465Z,2.92
2022-11-09T09:13:11.434Z,2.38
2022-11-09T09:15:39.482Z,2.25
2022-11-09T09:18:07.582Z,1.30
2022-11-09T09:20:35.623Z,1.20
2022-11-09T09:23:06.113Z,1.20
2022-11-09T09:25:34.178Z,1.73
2022-11-09T09:28:02.243Z,2.25
2022-11-09T09:30:31.752Z,1.98
2022-11-09T09:33:00.993Z,1.60
2022-11-09T09:35:29.881Z,1.10
2022-11-09T09:37:58.580Z,0.90
2022-11-09T09:40:30.502Z,1.30
2022-11-09T09:42:59.071Z,0.98
2022-11-09T09:45:30.202Z,2.33
2022-11-09T09:48:03.981Z,1.58
2022-11-09T09:50:38.721Z,1.50
2022-11-09T09:53:25.186Z,0.80
2022-11-09T09:55:58.293Z,2.92
2022-11-09T09:58:29.092Z,1.90
2022-11-09T10:01:03.303Z,1.83
2022-11-09T10:03:32.888Z,2.85
2022-11-09T10:06:10.363Z,2.60
2022-11-09T10:08:48.447Z,3.35
2022-11-09T10:11:26.281Z,1.98
2022-11-09T10:14:27.580Z,2.70
2022-11-09T10:17:02.684Z,2.03
2022-11-09T10:19:44.444Z,2.50
2022-11-09T10:22:18.204Z,3.58
2022-11-09T10:25:18.537Z,3.33
2022-11-09T10:27:47.606Z,3.72
2022-11-09T10:30:18.598Z,2.00
2022-11-09T10:32:49.773Z,2.45
2022-11-09T10:35:22.222Z,2.20
2022-11-09T10:37:52.324Z,3.35
2022-11-09T10:40:24.093Z,5.63
2022-11-09T10:42:55.122Z,3.28
2022-11-09T10:45:30.512Z,3.15
2022-11-09T10:47:58.695Z,2.45
2022-11-09T10:50:33.509Z,3.13
2022-11-09T10:53:16.835Z,3.05
2022-11-09T10:55:53.414Z,3.42
2022-11-09T10:58:29.976Z,1.13
2022-11-09T11:01:04.319Z,3.22
2022-11-09T11:03:36.445Z,1.92
2022-11-09T11:06:07.684Z,2.47
2022-11-09T11:08:39.251Z,4.03
2022-11-09T11:11:35.690Z,2.50
2022-11-09T11:14:19.989Z,2.10
2022-11-09T11:16:52.809Z,2.38
2022-11-09T11:19:34.979Z,2.78
2022-11-09T11:22:25.046Z,1.77
2022-11-09T11:24:56.391Z,2.33
2022-11-09T11:27:30.466Z,2.88
2022-11-09T11:30:05.213Z,2.47
2022-11-09T11:32:33.655Z,3.05
2022-11-09T11:35:02.272Z,1.95
2022-11-09T11:37:45.294Z,1.83
2022-11-09T11:40:20.834Z,1.92
2022-11-09T11:43:16.312Z,1.58
2022-11-09T11:45:50.728Z,2.70
2022-11-09T11:48:44.855Z,2.08
2022-11-09T11:51:18.277Z,2.85
2022-11-09T11:54:03.307Z,4.25
2022-11-09T11:56:38.945Z,2.00
2022-11-09T11:59:34.642Z,1.98
2022-11-09T12:02:25.850Z,1.90
2022-11-09T12:05:16.158Z,3.10
2022-11-09T12:07:57.196Z,2.95
2022-11-09T12:10:43.972Z,4.78
2022-11-09T12:13:32.894Z,4.75
2022-11-09T12:16:07.784Z,3.42
2022-11-09T12:18:50.815Z,5.20
2022-11-09T12:21:23.839Z,4.03
2022-11-09T12:24:16.618Z,3.47
2022-11-09T12:27:25.582Z,2.42
2022-11-09T12:30:02.271Z,1.92
2022-11-09T12:35:30.550Z,2.75
2022-11-09T12:38:02.846Z,1.40
2022-11-09T12:40:34.384Z,2.63
2022-11-09T12:43:10.857Z,1.90
2022-11-09T12:45:41.243Z,2.08
2022-11-09T12:48:21.527Z,1.23
2022-11-09T12:50:50.774Z,1.48
2022-11-09T12:53:20.985Z,2.25
2022-11-09T12:55:55.145Z,3.97
2022-11-09T12:58:27.396Z,5.07
2022-11-09T13:00:57.958Z,3.15
2022-11-09T13:03:29.383Z,1.55
2022-11-09T13:06:17.487Z,3.03
2022-11-09T13:08:58.716Z,3.17
2022-11-09T13:11:38.867Z,3.25
2022-11-09T13:14:35.055Z,4.47
2022-11-09T13:17:33.926Z,4.00
2022-11-09T13:20:52.771Z,2.95
2022-11-09T13:26:58.705Z,2.08
2022-11-09T13:29:28.718Z,3.97
2022-11-09T13:32:09.651Z,2.80
2022-11-09T13:34:45.169Z,4.00
2022-11-09T13:37:55.099Z,4.22
2022-11-09T13:40:49.773Z,4.47
2022-11-09T13:43:24.868Z,3.17
2022-11-09T13:45:56.392Z,3.22
2022-11-09T13:48:46.075Z,4.32
2022-11-09T13:51:16.136Z,2.97
2022-11-09T13:53:55.055Z,3.55
2022-11-09T13:56:32.136Z,6.63
2022-11-09T13:59:06.360Z,3.58
2022-11-09T14:01:38.559Z,3.47
2022-11-09T14:04:06.989Z,2.42
2022-11-09T14:06:35.238Z,2.13
2022-11-09T14:09:05.228Z,2.72
2022-11-09T14:11:49.325Z,5.90
2022-11-09T14:14:43.448Z,3.67
2022-11-09T14:17:18.518Z,3.50
2022-11-09T14:19:56.344Z,2.53
2022-11-09T14:22:24.589Z,2.88
2022-11-09T14:24:54.117Z,2.00
2022-11-09T14:27:23.667Z,3.13
2022-11-09T14:29:54.562Z,1.45
2022-11-09T14:32:28.855Z,3.72
2022-11-09T14:35:12.000Z,3.15
2022-11-09T14:37:46.270Z,5.32
2022-11-09T14:40:25.587Z,2.85
2022-11-09T14:42:56.632Z,2.40
2022-11-09T14:45:25.562Z,3.92
2022-11-09T14:47:56.734Z,4.07
2022-11-09T14:50:26.825Z,2.28
2022-11-09T14:52:56.871Z,2.83
2022-11-09T14:55:27.100Z,7.70
2022-11-09T14:57:56.809Z,4.47
2022-11-09T15:00:31.282Z,5.15
2022-11-09T15:03:00.129Z,7.45
2022-11-09T15:05:40.333Z,10.20
2022-11-09T15:08:17.755Z,8.25
2022-11-09T15:10:52.435Z,3.13
2022-11-09T15:13:29.870Z,4.28
2022-11-09T15:15:58.116Z,4.90
2022-11-09T15:18:34.378Z,3.03
2022-11-09T15:21:13.891Z,3.83
2022-11-09T15:23:46.265Z,2.20
2022-11-09T15:26:34.901Z,2.85
2022-11-09T15:29:03.936Z,3.50
2022-11-09T15:31:32.021Z,3.38
2022-11-09T15:34:04.952Z,2.50
2022-11-09T15:36:38.934Z,3.13
2022-11-09T15:39:16.664Z,3.10
2022-11-09T15:41:46.588Z,3.20
2022-11-09T15:44:15.426Z,2.17
2022-11-09T15:46:45.943Z,4.80
2022-11-09T15:49:17.836Z,2.53
2022-11-09T15:51:46.499Z,4.07
2022-11-09T15:54:16.656Z,6.93
2022-11-09T15:56:46.138Z,5.50
2022-11-09T15:59:21.482Z,7.68
2022-11-09T16:01:50.156Z,7.25
2022-11-09T16:04:18.312Z,4.13
2022-11-09T16:06:51.817Z,7.32
2022-11-09T16:09:20.061Z,5.60
2022-11-09T16:11:52.104Z,5.70
2022-11-09T16:14:23.074Z,6.50
2022-11-09T16:16:51.314Z,5.88
2022-11-09T16:19:19.395Z,8.48
2022-11-09T16:21:47.389Z,5.63
2022-11-09T16:24:17.479Z,4.78
2022-11-09T16:26:45.984Z,5.13
2022-11-09T16:29:15.581Z,7.53
2022-11-09T16:31:51.922Z,6.00
2022-11-09T16:34:20.655Z,5.68
2022-11-09T16:36:56.435Z,5.97
2022-11-09T16:39:26.892Z,6.65
2022-11-09T16:41:55.289Z,7.15
2022-11-09T16:44:30.271Z,4.10
2022-11-09T16:46:58.465Z,4.35
2022-11-09T16:49:28.512Z,5.60
2022-11-09T16:51:56.720Z,4.38
2022-11-09T16:54:24.824Z,4.38
2022-11-09T16:56:54.788Z,4.50
2022-11-09T16:59:24.581Z,4.45
2022-11-09T17:01:53.762Z,3.67
2022-11-09T17:04:22.886Z,3.03
2022-11-09T17:06:51.404Z,2.63
2022-11-09T17:09:20.720Z,3.67
2022-11-09T17:11:48.754Z,6.47
2022-11-09T17:14:16.782Z,6.03
2022-11-09T17:16:47.383Z,6.25
2022-11-09T17:19:15.682Z,3.90
2022-11-09T17:21:43.845Z,4.50
2022-11-09T17:24:14.459Z,5.65
2022-11-09T17:26:45.211Z,10.27
2022-11-09T17:29:15.002Z,5.60
2022-11-09T17:31:43.212Z,7.72
2022-11-09T17:34:21.156Z,7.97
2022-11-09T17:37:03.555Z,3.65
2022-11-09T17:39:35.132Z,5.20
2022-11-09T17:42:06.221Z,2.92
2022-11-09T17:44:35.870Z,2.58
2022-11-09T17:47:05.357Z,3.33
2022-11-09T17:49:34.758Z,3.17
2022-11-09T17:52:02.923Z,2.97
2022-11-09T17:54:36.534Z,2.50
2022-11-09T17:57:05.365Z,2.63
2022-11-09T17:59:41.783Z,6.85
2022-11-09T18:02:11.021Z,3.22
2022-11-09T18:04:40.951Z,3.65
2022-11-09T18:07:08.978Z,2.70
2022-11-09T18:09:41.757Z,2.72
2022-11-09T18:12:10.597Z,1.30
2022-11-09T18:14:38.556Z,4.47
2022-11-09T18:17:06.784Z,3.55
2022-11-09T18:19:34.949Z,3.55
2022-11-09T18:22:08.620Z,1.75
2022-11-09T18:24:41.788Z,3.42
2022-11-09T18:27:09.923Z,3.03
2022-11-09T18:29:38.040Z,7.22
2022-11-09T18:32:08.697Z,3.95
2022-11-09T18:34:36.953Z,1.23
2022-11-09T18:37:06.483Z,1.17
2022-11-09T18:39:37.498Z,0.88
2022-11-09T18:42:06.196Z,1.92
2022-11-09T18:44:36.405Z,2.13
2022-11-09T18:47:06.068Z,1.27
2022-11-09T18:49:36.884Z,2.05
2022-11-09T18:52:06.566Z,1.20
2022-11-09T18:54:35.941Z,1.92
2022-11-09T18:57:04.089Z,2.70
2022-11-09T18:59:37.900Z,6.07
2022-11-09T19:02:07.422Z,5.78
2022-11-09T19:04:35.753Z,2.75
2022-11-09T19:07:08.341Z,2.05
2022-11-09T19:09:45.543Z,1.88
2022-11-09T19:12:14.819Z,3.38
2022-11-09T19:14:44.693Z,2.30
2022-11-09T19:17:14.517Z,2.90
2022-11-09T19:19:43.037Z,2.47
2022-11-09T19:22:18.172Z,3.30
2022-11-09T19:24:47.695Z,2.70
2022-11-09T19:27:17.160Z,3.55
2022-11-09T19:29:45.533Z,4.60
2022-11-09T19:32:13.622Z,4.05
2022-11-09T19:34:42.847Z,3.65
2022-11-09T19:37:11.246Z,3.90
2022-11-09T19:39:43.321Z,5.88
2022-11-09T19:42:23.644Z,4.88
2022-11-09T19:44:56.178Z,16.08
2022-11-09T19:47:28.942Z,18.25
2022-11-09T19:49:58.565Z,18.95
2022-11-09T19:52:26.817Z,24.52
2022-11-09T19:54:57.451Z,25.42
2022-11-09T19:57:26.961Z,8.38
2022-11-09T19:59:55.052Z,3.90
2022-11-09T20:02:23.934Z,3.95
2022-11-09T20:04:52.376Z,2.90
2022-11-09T20:07:20.573Z,1.40
2022-11-09T20:09:51.948Z,2.30
2022-11-09T20:12:37.399Z,2.45
2022-11-09T20:15:07.810Z,8.70
2022-11-09T20:17:35.830Z,1.50
2022-11-09T20:20:03.996Z,2.00
2022-11-09T20:22:32.087Z,1.75
2022-11-09T20:25:00.148Z,1.58
2022-11-09T20:27:32.025Z,1.70
2022-11-09T20:30:00.438Z,2.17
2022-11-09T20:32:31.536Z,1.52
2022-11-09T20:35:01.848Z,2.22
2022-11-09T20:37:29.891Z,1.58
2022-11-09T20:39:59.204Z,1.30
2022-11-09T20:42:28.725Z,16.23
2022-11-09T20:44:58.740Z,8.43
2022-11-09T20:47:49.582Z,9.55
2022-11-09T20:50:16.424Z,12.88
2022-11-09T20:52:44.466Z,4.55
2022-11-09T20:55:12.734Z,3.47
2022-11-09T20:57:40.908Z,3.65
2022-11-09T21:00:10.840Z,4.47
2022-11-09T21:02:39.071Z,6.95
2022-11-09T21:05:07.380Z,4.28
2022-11-09T21:07:36.864Z,3.30
2022-11-09T21:10:05.483Z,4.40
2022-11-09T21:12:33.643Z,4.28
2022-11-09T21:15:01.867Z,3.08
2022-11-09T21:17:29.994Z,2.78
2022-11-09T21:19:58.087Z,3.28
2022-11-09T21:22:49.498Z,2.65
2022-11-09T21:25:36.516Z,2.45
2022-11-09T21:28:36.683Z,2.42
2022-11-09T21:31:05.012Z,3.60
2022-11-09T21:33:33.158Z,2.30
2022-11-09T21:36:07.599Z,3.88
2022-11-09T21:38:35.642Z,2.17
2022-11-09T21:41:21.189Z,3.83
2022-11-09T21:43:49.983Z,2.40
2022-11-09T21:46:18.103Z,4.53
2022-11-09T21:48:46.644Z,2.58
2022-11-09T21:51:14.621Z,9.77
2022-11-09T21:53:42.760Z,3.15
2022-11-09T21:56:12.883Z,12.15
2022-11-09T21:58:40.949Z,6.57
2022-11-09T22:01:10.859Z,4.05
2022-11-09T22:03:39.843Z,3.75
2022-11-09T22:06:08.569Z,5.45
2022-11-09T22:08:36.795Z,2.28
2022-11-09T22:11:06.297Z,2.15
2022-11-09T22:13:55.435Z,1.45
2022-11-09T22:16:25.380Z,2.38
2022-11-09T22:19:10.837Z,4.40
2022-11-09T22:21:42.297Z,4.78
2022-11-09T22:24:11.502Z,4.05
2022-11-09T22:26:39.655Z,4.72
2022-11-09T22:29:09.112Z,5.78
2022-11-09T22:31:37.131Z,4.97
2022-11-09T22:34:05.266Z,3.10
2022-11-09T22:36:33.270Z,2.20
2022-11-09T22:39:01.327Z,3.17
2022-11-09T22:41:29.418Z,13.90
2022-11-09T22:43:57.499Z,1.73
2022-11-09T22:46:26.988Z,2.53
2022-11-09T22:48:58.260Z,3.22
2022-11-09T22:51:28.302Z,2.83
2022-11-09T22:53:56.456Z,3.28
2022-11-09T22:56:24.477Z,4.78
2022-11-09T22:58:53.679Z,3.10
2022-11-09T23:01:22.427Z,4.15
2022-11-09T23:03:51.943Z,3.35
2022-11-09T23:06:23.295Z,3.55
2022-11-09T23:08:51.382Z,3.45
2022-11-09T23:11:21.033Z,3.33
2022-11-09T23:13:50.366Z,3.22
2022-11-09T23:16:18.384Z,2.15
2022-11-09T23:18:54.739Z,2.50
2022-11-09T23:21:27.269Z,3.13
2022-11-09T23:23:56.890Z,2.88
2022-11-09T23:26:29.469Z,5.00
2022-11-09T23:28:58.199Z,2.25
2022-11-09T23:31:27.081Z,2.60
2022-11-09T23:33:56.783Z,4.15
2022-11-09T23:36:27.732Z,3.03
2022-11-09T23:38:55.717Z,3.10
2022-11-09T23:41:23.763Z,2.35
2022-11-09T23:43:57.975Z,2.65
2022-11-09T23:46:26.052Z,2.65
2022-11-09T23:48:54.067Z,3.13
2022-11-09T23:51:23.422Z,4.97
2022-11-09T23:53:52.978Z,2.40
2022-11-09T23:56:21.671Z,2.90
2022-11-09T23:58:51.671Z,6.10
